Time;durP1;ratioP1;P1;durP2;ratioP2;P2;SDS_P1;SDS_P2;PMS_P1;PMS_P2;Temp;Humidity;BMP_temperature;BMP_pressure;BME280_temperature;BME280_humidity;BME280_pressure;Samples;Min_cycle;Max_cycle;Signal;HPM_P1;HPM_P2
2021/04/29 00:02:47;;;;;;;38.10;19.65;;;;;;;5.86;50.18;97815.41;261693;1101;22813;-73
2021/04/29 00:07:52;;;;;;;38.60;18.90;;;;;;;5.85;50.19;97808.52;261416;1093;22961;-71
2021/04/29 00:12:55;;;;;;;35.63;18.30;;;;;;;5.83;50.71;97808.00;261511;1093;25868;-72
2021/04/29 00:18:02;;;;;;;38.03;20.27;;;;;;;5.77;50.41;97815.23;261620;1093;27298;-72
2021/04/29 00:23:06;;;;;;;46.30;21.53;;;;;;;5.73;50.49;97810.77;261529;1101;22743;-73
2021/04/29 00:28:13;;;;;;;56.80;27.77;;;;;;;5.68;50.73;97816.11;261437;1093;22964;-71
2021/04/29 00:33:21;;;;;;;54.90;26.17;;;;;;;5.61;51.21;97814.59;261357;1093;25875;-72
2021/04/29 00:38:24;;;;;;;47.80;24.15;;;;;;;5.58;51.39;97822.30;261420;1093;22929;-71
2021/04/29 00:43:27;;;;;;;39.10;20.73;;;;;;;5.51;51.62;97824.49;261433;1093;25973;-71
2021/04/29 00:48:32;;;;;;;33.97;18.73;;;;;;;5.49;51.34;97814.93;261481;1094;26085;-72
2021/04/29 00:53:40;;;;;;;34.57;17.37;;;;;;;5.51;51.72;97822.63;261611;1093;26350;-71
2021/04/29 00:58:42;;;;;;;31.60;16.07;;;;;;;5.51;51.84;97819.18;261509;1093;22884;-71
2021/04/29 01:03:57;;;;;;;32.97;17.43;;;;;;;5.54;51.65;97819.43;261499;1101;24532;-72
2021/04/29 01:09:12;;;;;;;30.57;16.03;;;;;;;5.53;51.73;97823.16;261500;1101;22735;-73
2021/04/29 01:14:16;;;;;;;33.45;17.35;;;;;;;5.47;51.92;97811.77;261536;1093;25410;-71
2021/04/29 01:19:28;;;;;;;29.20;16.20;;;;;;;5.41;52.39;97814.74;261475;1101;24391;-71
2021/04/29 01:25:07;;;;;;;31.87;16.00;;;;;;;5.31;52.42;97815.61;261405;1093;25858;-72
2021/04/29 01:30:21;;;;;;;33.07;15.80;;;;;;;5.23;52.65;97809.05;261724;1101;22803;-71
2021/04/29 01:35:39;;;;;;;30.20;16.90;;;;;;;5.18;52.86;97810.95;261561;1101;23279;-72
2021/04/29 01:40:42;;;;;;;27.65;14.35;;;;;;;5.13;52.96;97809.09;261426;1101;22775;-71
2021/04/29 01:45:45;;;;;;;29.43;15.13;;;;;;;5.08;53.16;97812.59;261505;1101;22936;-71
2021/04/29 01:50:48;;;;;;;32.05;16.70;;;;;;;5.04;53.16;97816.86;261359;1096;22908;-72
2021/04/29 01:55:54;;;;;;;25.20;14.27;;;;;;;5.01;53.57;97819.26;261427;1093;26235;-72
2021/04/29 02:00:57;;;;;;;31.23;15.70;;;;;;;4.95;53.33;97814.00;261424;1096;22801;-72
2021/04/29 02:06:01;;;;;;;31.50;15.80;;;;;;;4.90;53.34;97813.23;261550;1093;22739;-72
2021/04/29 02:11:04;;;;;;;26.20;14.50;;;;;;;4.86;53.60;97807.67;261634;1101;24364;-71
2021/04/29 02:16:16;;;;;;;29.57;15.97;;;;;;;4.83;53.44;97807.41;261448;1093;25829;-71
2021/04/29 02:21:20;;;;;;;26.70;14.98;;;;;;;4.81;53.86;97791.77;261744;1093;22799;-72
2021/04/29 02:26:38;;;;;;;29.50;16.33;;;;;;;4.78;53.62;97798.45;261502;1093;22758;-72
2021/04/29 02:31:57;;;;;;;31.47;16.30;;;;;;;4.76;54.16;97799.78;261382;1101;22813;-71
2021/04/29 02:37:01;;;;;;;31.55;15.80;;;;;;;4.72;54.47;97793.44;261481;1093;22754;-71
2021/04/29 02:42:05;;;;;;;27.93;15.70;;;;;;;4.63;54.41;97787.89;261686;1095;22967;-71
2021/04/29 02:47:18;;;;;;;26.73;15.93;;;;;;;4.55;54.44;97780.53;261650;1093;22771;-72
2021/04/29 02:52:28;;;;;;;27.40;15.45;;;;;;;4.47;54.48;97781.88;261778;1101;22863;-72
2021/04/29 02:57:33;;;;;;;30.03;16.70;;;;;;;4.45;54.81;97776.06;261444;1093;26066;-71
2021/04/29 03:02:49;;;;;;;33.07;16.20;;;;;;;4.48;55.29;97774.70;261817;1094;22800;-71
2021/04/29 03:08:12;;;;;;;36.67;15.47;;;;;;;4.54;55.43;97777.06;261418;1096;25906;-71
2021/04/29 03:13:15;;;;;;;35.47;17.17;;;;;;;4.60;55.49;97780.48;261498;1094;22748;-70
2021/04/29 03:18:17;;;;;;;28.97;17.13;;;;;;;4.57;55.66;97781.81;261360;1101;22937;-71
2021/04/29 03:23:21;;;;;;;31.30;16.53;;;;;;;4.53;55.52;97780.77;261418;1101;22882;-72
2021/04/29 03:28:34;;;;;;;31.17;17.80;;;;;;;4.49;55.30;97779.76;261458;1101;22945;-71
2021/04/29 03:33:37;;;;;;;28.87;16.90;;;;;;;4.45;55.49;97791.98;261332;1101;22761;-72
2021/04/29 03:38:40;;;;;;;30.37;15.77;;;;;;;4.41;55.81;97788.28;261431;1093;24284;-70
2021/04/29 03:43:50;;;;;;;28.43;16.57;;;;;;;4.37;56.17;97776.63;261475;1093;22730;-71
2021/04/29 03:49:11;;;;;;;30.07;16.40;;;;;;;4.34;56.81;97785.91;261366;1096;22906;-72
2021/04/29 03:54:14;;;;;;;36.53;17.57;;;;;;;4.37;57.06;97795.19;261377;1093;25862;-72
2021/04/29 03:59:17;;;;;;;40.37;19.57;;;;;;;4.38;57.34;97784.31;261540;1094;27152;-72
2021/04/29 04:04:20;;;;;;;41.40;22.43;;;;;;;4.44;57.83;97777.91;261518;1100;24510;-71
2021/04/29 04:09:25;;;;;;;40.60;21.13;;;;;;;4.56;57.86;97776.79;261470;1093;25935;-72
2021/04/29 04:14:30;;;;;;;49.27;25.97;;;;;;;4.74;57.89;97770.88;261706;1093;24365;-72
2021/04/29 04:19:39;;;;;;;52.97;27.23;;;;;;;5.01;58.23;97769.64;261591;1095;27228;-72
2021/04/29 04:24:43;;;;;;;71.23;31.33;;;;;;;5.36;58.24;97770.44;261384;1101;22828;-72
2021/04/29 04:29:47;;;;;;;60.10;28.40;;;;;;;5.73;57.73;97765.58;261359;1093;22758;-71
2021/04/29 04:34:49;;;;;;;57.27;28.07;;;;;;;6.03;57.39;97769.83;261393;1101;24404;-72
2021/04/29 04:40:06;;;;;;;48.40;26.57;;;;;;;6.38;57.53;97761.70;261347;1093;25977;-72
2021/04/29 04:45:12;;;;;;;50.87;26.67;;;;;;;6.73;57.10;97765.77;261576;1101;24370;-71
2021/04/29 04:50:16;;;;;;;55.75;28.65;;;;;;;7.01;56.65;97764.03;261645;1101;22758;-71
2021/04/29 04:55:19;;;;;;;56.90;27.77;;;;;;;7.44;56.47;97756.97;261446;1101;24039;-71
2021/04/29 05:00:22;;;;;;;54.30;27.93;;;;;;;7.87;56.01;97751.42;261459;1095;24516;-71
2021/04/29 05:05:25;;;;;;;47.07;26.07;;;;;;;8.30;56.20;97761.79;261530;1093;22731;-71
2021/04/29 05:10:30;;;;;;;60.87;32.67;;;;;;;8.69;57.05;97757.02;261710;1101;24203;-71
2021/04/29 05:15:35;;;;;;;50.43;30.53;;;;;;;8.98;56.25;97750.49;261439;1093;22765;-71
2021/04/29 05:20:38;;;;;;;52.87;30.07;;;;;;;9.21;56.45;97751.30;261379;1093;25971;-71
2021/04/29 05:25:42;;;;;;;56.30;31.40;;;;;;;9.42;55.67;97754.27;261473;1093;25979;-71
2021/04/29 05:30:46;;;;;;;49.20;28.97;;;;;;;9.63;55.64;97749.19;261492;1093;25977;-71
2021/04/29 05:35:50;;;;;;;51.63;28.63;;;;;;;9.88;56.03;97750.41;261393;1093;25954;-72
2021/04/29 05:40:55;;;;;;;48.07;27.30;;;;;;;10.23;55.85;97745.17;261810;1093;22868;-70
2021/04/29 05:45:58;;;;;;;44.07;26.63;;;;;;;10.60;55.65;97729.69;261743;1101;23033;-71
2021/04/29 05:51:01;;;;;;;47.87;25.50;;;;;;;10.98;55.21;97738.20;261749;1101;23753;-71
2021/04/29 05:56:05;;;;;;;43.07;25.13;;;;;;;11.38;55.03;97733.41;262207;1093;25970;-71
2021/04/29 06:01:11;;;;;;;33.90;20.30;;;;;;;11.77;55.05;97736.94;263501;1101;24048;-71
2021/04/29 06:06:14;;;;;;;17.30;10.50;;;;;;;12.21;55.25;97728.71;262564;1094;22830;-72
2021/04/29 06:11:17;;;;;;;13.50;10.10;;;;;;;12.63;55.12;97736.84;262544;1095;25919;-70
2021/04/29 06:16:20;;;;;;;12.30;8.00;;;;;;;13.02;54.33;97736.69;262464;1093;22803;-70
2021/04/29 06:21:23;;;;;;;12.57;8.13;;;;;;;13.48;54.30;97734.08;269105;1100;22564;-71
2021/04/29 06:26:25;;;;;;;18.27;8.63;;;;;;;13.93;53.70;97727.08;269131;1095;22532;-70
2021/04/29 06:31:29;;;;;;;10.90;7.90;;;;;;;14.32;53.08;97730.22;262814;1096;22797;-71
2021/04/29 06:36:33;;;;;;;14.90;8.05;;;;;;;14.63;52.47;97726.92;269143;1096;23338;-71
2021/04/29 06:41:36;;;;;;;11.65;7.85;;;;;;;14.76;52.01;97727.70;261953;1093;26213;-71
2021/04/29 06:46:40;;;;;;;12.43;8.27;;;;;;;14.82;51.69;97730.95;262055;1101;22752;-71
2021/04/29 06:51:45;;;;;;;13.20;8.25;;;;;;;14.81;51.26;97732.84;262040;1101;22799;-68
2021/04/29 06:56:48;;;;;;;12.90;8.20;;;;;;;14.89;51.38;97728.45;261663;1093;22879;-70
2021/04/29 07:01:51;;;;;;;12.95;9.40;;;;;;;15.02;51.24;97729.19;262458;1093;22750;-72
2021/04/29 07:06:54;;;;;;;11.40;8.17;;;;;;;15.19;50.80;97730.80;262355;1093;22751;-72
2021/04/29 07:11:57;;;;;;;14.80;9.60;;;;;;;15.41;51.06;97726.75;262475;1095;25995;-70
2021/04/29 07:17:00;;;;;;;14.20;10.00;;;;;;;15.74;50.96;97717.57;262553;1093;24177;-73
2021/04/29 07:22:06;;;;;;;17.00;10.45;;;;;;;15.82;49.45;97719.34;262492;1101;22851;-73
2021/04/29 07:27:10;;;;;;;24.50;12.15;;;;;;;15.78;49.78;97707.64;263107;1093;25865;-72
2021/04/29 07:32:13;;;;;;;16.90;10.55;;;;;;;15.91;50.00;97709.14;263073;1093;26238;-72
2021/04/29 07:37:17;;;;;;;15.15;9.80;;;;;;;16.01;50.12;97718.63;262014;1096;25510;-73
2021/04/29 07:42:20;;;;;;;11.40;8.35;;;;;;;16.15;50.21;97720.88;261937;1093;25922;-73
2021/04/29 07:47:23;;;;;;;12.60;8.35;;;;;;;16.26;50.65;97723.83;261895;1096;23192;-72
2021/04/29 07:52:26;;;;;;;11.55;7.75;;;;;;;16.39;50.67;97719.09;262082;1097;22857;-72
2021/04/29 07:57:33;;;;;;;11.80;7.45;;;;;;;16.33;50.27;97720.52;262114;1093;23124;-74
2021/04/29 08:02:49;;;;;;;15.95;8.85;;;;;;;16.22;50.29;97722.97;262289;1093;25855;-71
2021/04/29 08:07:52;;;;;;;13.85;9.30;;;;;;;16.25;50.59;97720.33;262162;1093;22738;-72
2021/04/29 08:13:02;;;;;;;14.20;9.50;;;;;;;16.43;50.97;97712.63;262339;1101;22842;-71
2021/04/29 08:18:25;;;;;;;13.20;9.00;;;;;;;16.62;50.32;97716.52;263976;1094;22745;-71
2021/04/29 08:23:28;;;;;;;14.97;8.40;;;;;;;17.01;51.14;97710.34;269222;1101;22530;-72
2021/04/29 08:28:31;;;;;;;13.27;9.57;;;;;;;17.31;49.88;97715.18;265532;1093;25836;-72
2021/04/29 08:33:34;;;;;;;13.37;9.47;;;;;;;17.53;49.41;97714.41;262031;1093;25855;-72
2021/04/29 08:38:37;;;;;;;9.80;7.50;;;;;;;17.71;49.47;97705.80;265188;1095;26280;-72
2021/04/29 08:43:40;;;;;;;11.60;8.63;;;;;;;17.65;48.61;97699.91;262217;1101;22797;-72
2021/04/29 08:48:44;;;;;;;13.20;9.33;;;;;;;17.46;48.94;97700.76;262290;1093;22816;-71
2021/04/29 08:53:48;;;;;;;14.15;8.80;;;;;;;17.53;48.86;97703.59;262217;1101;23698;-72
2021/04/29 08:58:59;;;;;;;9.15;7.85;;;;;;;17.55;48.65;97692.39;263065;1094;23596;-69
2021/04/29 09:04:12;;;;;;;12.50;10.00;;;;;;;17.56;48.75;97700.16;262588;1093;25862;-72
2021/04/29 09:09:18;;;;;;;15.80;10.67;;;;;;;17.71;49.10;97689.55;262380;1101;22945;-73
2021/04/29 09:14:39;;;;;;;16.10;10.20;;;;;;;18.07;48.51;97696.33;265987;1093;25830;-71
2021/04/29 09:19:48;;;;;;;13.60;9.15;;;;;;;18.15;48.33;97691.81;261980;1101;23981;-73
2021/04/29 09:24:53;;;;;;;16.40;10.25;;;;;;;18.35;47.48;97687.05;261957;1093;22758;-72
2021/04/29 09:30:04;;;;;;;14.05;8.95;;;;;;;18.41;47.55;97687.52;261887;1101;22841;-72
2021/04/29 09:35:21;;;;;;;16.28;10.75;;;;;;;18.40;47.13;97691.40;262021;1093;22760;-70
2021/04/29 09:40:33;;;;;;;13.80;10.10;;;;;;;18.42;46.98;97684.44;262439;1093;22750;-71
2021/04/29 09:45:38;;;;;;;17.80;10.90;;;;;;;18.38;47.47;97688.25;262157;1101;23481;-73
2021/04/29 09:50:57;;;;;;;14.65;10.35;;;;;;;18.47;47.43;97683.36;262105;1093;26088;-72
2021/04/29 09:56:08;;;;;;;15.25;11.50;;;;;;;18.50;47.71;97685.33;262529;1093;23032;-72
2021/04/29 10:01:14;;;;;;;16.40;11.10;;;;;;;18.62;47.95;97678.88;261962;1093;26090;-73
2021/04/29 10:06:30;;;;;;;16.20;10.65;;;;;;;18.52;47.91;97682.24;262462;1101;22810;-72
2021/04/29 10:11:44;;;;;;;14.40;9.65;;;;;;;18.17;48.56;97683.32;262527;1096;22775;-71
2021/04/29 10:16:47;;;;;;;16.60;10.00;;;;;;;18.24;49.12;97678.80;262763;1095;25990;-72
2021/04/29 10:21:50;;;;;;;14.50;10.50;;;;;;;18.34;48.50;97679.29;262458;1094;22814;-71
2021/04/29 10:27:16;;;;;;;14.70;10.70;;;;;;;18.38;48.29;97677.41;266888;1095;22841;-71
2021/04/29 10:32:18;;;;;;;12.20;9.30;;;;;;;18.57;47.79;97681.93;269180;1101;22626;-70
2021/04/29 10:37:24;;;;;;;13.53;9.63;;;;;;;18.58;47.93;97678.84;263263;1093;22741;-73
2021/04/29 10:42:29;;;;;;;13.60;9.80;;;;;;;19.12;48.35;97676.00;262240;1093;26213;-74
2021/04/29 10:47:34;;;;;;;21.47;10.73;;;;;;;19.53;47.45;97672.50;262137;1101;22738;-71
2021/04/29 10:52:48;;;;;;;12.60;10.00;;;;;;;19.32;45.27;97682.80;262514;1097;24428;-72
2021/04/29 10:57:53;;;;;;;16.60;10.80;;;;;;;19.00;45.99;97682.48;261728;1093;25865;-71
2021/04/29 11:03:07;;;;;;;14.33;9.83;;;;;;;18.86;46.33;97680.34;261851;1094;22755;-71
2021/04/29 11:08:12;;;;;;;16.87;11.10;;;;;;;18.71;46.29;97681.33;262026;1101;22737;-72
2021/04/29 11:13:21;;;;;;;16.50;10.95;;;;;;;18.50;47.09;97682.61;261996;1093;22767;-72
2021/04/29 11:18:25;;;;;;;15.23;11.30;;;;;;;18.55;46.83;97676.08;261801;1101;22751;-71
2021/04/29 11:23:46;;;;;;;16.15;10.90;;;;;;;18.63;46.61;97686.67;262365;1101;22829;-71
2021/04/29 11:28:55;;;;;;;17.00;11.90;;;;;;;18.67;46.82;97683.98;261943;1095;22752;-72
2021/04/29 11:33:58;;;;;;;15.27;10.40;;;;;;;18.74;46.19;97673.22;262180;1101;24404;-70
2021/04/29 11:39:04;;;;;;;14.80;10.15;;;;;;;18.79;45.65;97683.75;261706;1093;22757;-71
2021/04/29 11:44:20;;;;;;;18.45;12.65;;;;;;;18.67;46.02;97670.42;261871;1101;22919;-71
2021/04/29 11:49:42;;;;;;;13.25;10.20;;;;;;;18.87;46.55;97678.41;262257;1101;23064;-71
2021/04/29 11:54:47;;;;;;;15.47;10.77;;;;;;;18.97;45.52;97669.63;261869;1101;22734;-71
2021/04/29 11:59:52;;;;;;;17.10;11.65;;;;;;;19.15;45.92;97683.39;262194;1095;24065;-71
2021/04/29 12:04:55;;;;;;;16.75;10.95;;;;;;;19.17;44.89;97686.53;261901;1101;23480;-72
2021/04/29 12:09:57;;;;;;;14.65;9.70;;;;;;;19.17;45.04;97672.95;262056;1095;25976;-71
2021/04/29 12:15:01;;;;;;;13.50;10.00;;;;;;;19.19;44.75;97664.44;262024;1095;25858;-72
2021/04/29 12:20:04;;;;;;;12.45;9.40;;;;;;;19.09;44.45;97671.31;262240;1093;22745;-72
2021/04/29 12:25:08;;;;;;;13.40;9.70;;;;;;;19.17;44.77;97661.30;262380;1101;23483;-71
2021/04/29 12:30:11;;;;;;;11.75;9.60;;;;;;;19.16;45.28;97655.10;262086;1101;23569;-71
2021/04/29 12:35:28;;;;;;;15.50;9.40;;;;;;;19.16;44.46;97644.24;262230;1101;22858;-71
2021/04/29 12:40:37;;;;;;;13.95;9.00;;;;;;;19.31;45.38;97645.94;261649;1093;26051;-70
2021/04/29 12:46:00;;;;;;;11.45;8.60;;;;;;;19.63;44.56;97644.67;261953;1101;22707;-71
2021/04/29 12:51:13;;;;;;;11.80;10.05;;;;;;;19.77;44.57;97649.44;261913;1093;25980;-70
2021/04/29 12:56:23;;;;;;;13.85;10.75;;;;;;;19.86;44.18;97649.90;261916;1101;22734;-70
2021/04/29 13:01:26;;;;;;;13.43;10.10;;;;;;;19.99;44.46;97655.81;260434;1093;26309;-70
2021/04/29 13:06:41;;;;;;;13.70;9.85;;;;;;;20.05;44.49;97657.03;260375;1101;22745;-70
2021/04/29 13:11:47;;;;;;;11.73;8.83;;;;;;;19.91;44.04;97671.30;262274;1096;26172;-71
2021/04/29 13:16:50;;;;;;;12.85;9.45;;;;;;;19.64;44.00;97668.73;261772;1101;22840;-70
2021/04/29 13:21:53;;;;;;;12.93;10.63;;;;;;;19.43;44.02;97688.34;261755;1093;25935;-68
2021/04/29 13:26:58;;;;;;;13.17;9.40;;;;;;;19.23;45.13;97671.45;262197;1101;22742;-72
2021/04/29 13:32:02;;;;;;;14.00;8.67;;;;;;;19.22;45.13;97674.55;261837;1101;22757;-71
2021/04/29 13:37:05;;;;;;;13.75;10.10;;;;;;;19.25;45.24;97680.02;261962;1101;22789;-71
2021/04/29 13:42:09;;;;;;;12.80;9.00;;;;;;;19.31;45.25;97667.66;261707;1101;22750;-71
2021/04/29 13:47:12;;;;;;;16.03;9.60;;;;;;;19.57;45.96;97665.17;262003;1101;22788;-71
2021/04/29 13:52:22;;;;;;;14.20;9.60;;;;;;;19.74;45.53;97661.03;261904;1095;22742;-71
2021/04/29 13:57:31;;;;;;;14.10;9.20;;;;;;;19.89;44.92;97673.59;261931;1101;22861;-71
2021/04/29 14:02:37;;;;;;;13.53;9.33;;;;;;;19.98;45.27;97679.50;262695;1093;24831;-70
2021/04/29 14:07:40;;;;;;;11.23;8.50;;;;;;;19.95;45.14;97674.83;263391;1101;22903;-71
2021/04/29 14:12:43;;;;;;;11.67;9.07;;;;;;;19.75;44.85;97670.75;266500;1093;26085;-71
2021/04/29 14:17:50;;;;;;;12.60;9.10;;;;;;;19.76;45.51;97666.89;261748;1101;23798;-71
2021/04/29 14:23:05;;;;;;;15.53;10.20;;;;;;;20.07;45.79;97656.64;261494;1101;22747;-72
2021/04/29 14:28:09;;;;;;;12.10;9.30;;;;;;;20.12;43.97;97664.45;261467;1101;22817;-71
2021/04/29 14:33:11;;;;;;;14.30;9.25;;;;;;;20.05;44.96;97661.66;261601;1093;28199;-73
2021/04/29 14:38:16;;;;;;;13.75;9.90;;;;;;;20.00;44.70;97660.86;261492;1093;25977;-71
2021/04/29 14:43:19;;;;;;;10.90;7.97;;;;;;;20.02;44.43;97643.41;261641;1101;22799;-70
2021/04/29 14:48:22;;;;;;;13.10;8.50;;;;;;;19.99;43.80;97639.50;261322;1093;26235;-71
2021/04/29 14:53:25;;;;;;;10.50;8.13;;;;;;;19.84;43.79;97635.92;261459;1093;27189;-72
2021/04/29 14:58:28;;;;;;;10.65;8.20;;;;;;;19.69;44.13;97631.52;261390;1093;27246;-72
2021/04/29 15:03:32;;;;;;;11.45;9.85;;;;;;;19.52;45.09;97638.34;261579;1101;22876;-71
2021/04/29 15:08:34;;;;;;;11.20;8.90;;;;;;;19.65;45.43;97637.68;261576;1093;23715;-74
2021/04/29 15:13:37;;;;;;;12.55;9.05;;;;;;;19.96;44.22;97641.06;261389;1096;24131;-71
2021/04/29 15:18:40;;;;;;;10.70;8.10;;;;;;;20.12;43.86;97626.39;261348;1096;27180;-71
2021/04/29 15:23:42;;;;;;;10.77;7.00;;;;;;;20.23;44.00;97623.72;261377;1093;22929;-71
2021/04/29 15:28:45;;;;;;;12.67;7.57;;;;;;;20.26;43.52;97636.55;261409;1093;26028;-72
2021/04/29 15:33:48;;;;;;;9.60;7.50;;;;;;;20.16;43.49;97625.25;261389;1093;22899;-71
2021/04/29 15:38:58;;;;;;;11.13;7.40;;;;;;;20.10;43.60;97610.44;261496;1093;24127;-71
2021/04/29 15:44:15;;;;;;;9.10;6.83;;;;;;;20.07;43.30;97610.44;261386;1093;23044;-71
2021/04/29 15:49:23;;;;;;;9.90;7.30;;;;;;;20.02;43.25;97624.38;261518;1101;22781;-71
2021/04/29 15:54:26;;;;;;;14.93;7.70;;;;;;;19.90;43.48;97630.91;261435;1093;22750;-72
2021/04/29 15:59:29;;;;;;;8.87;7.53;;;;;;;19.82;44.16;97627.36;261377;1101;23061;-72
2021/04/29 16:04:33;;;;;;;9.75;7.68;;;;;;;19.69;43.86;97621.42;261509;1093;22819;-72
2021/04/29 16:09:35;;;;;;;10.43;8.03;;;;;;;19.47;44.28;97620.47;261418;1094;22754;-72
2021/04/29 16:14:43;;;;;;;10.35;8.10;;;;;;;19.31;44.91;97613.36;261519;1101;22910;-72
2021/04/29 16:19:46;;;;;;;10.20;7.60;;;;;;;19.17;44.73;97607.02;261417;1093;24417;-72
2021/04/29 16:24:53;;;;;;;9.33;7.50;;;;;;;18.90;45.82;97607.94;261592;1093;22970;-71
2021/04/29 16:29:57;;;;;;;9.80;7.45;;;;;;;18.73;45.74;97612.00;261500;1093;22922;-71
2021/04/29 16:34:59;;;;;;;9.15;7.35;;;;;;;18.62;46.19;97619.21;261446;1093;22768;-71
2021/04/29 16:40:05;;;;;;;11.50;7.70;;;;;;;18.52;46.37;97609.80;261505;1101;22883;-72
2021/04/29 16:45:09;;;;;;;11.10;7.90;;;;;;;18.42;46.39;97616.66;261408;1101;25150;-72
2021/04/29 16:50:15;;;;;;;11.40;8.05;;;;;;;18.29;46.65;97604.50;261405;1093;22851;-71
2021/04/29 16:55:19;;;;;;;10.20;7.45;;;;;;;18.12;46.85;97617.44;261329;1093;25829;-71
2021/04/29 17:00:24;;;;;;;11.13;7.40;;;;;;;17.96;46.98;97622.23;261598;1093;25861;-72
2021/04/29 17:05:27;;;;;;;9.10;7.00;;;;;;;17.81;47.41;97618.53;261507;1101;23367;-71
2021/04/29 17:10:30;;;;;;;10.60;7.20;;;;;;;17.66;47.79;97619.46;261315;1101;22825;-72
2021/04/29 17:15:35;;;;;;;11.25;7.75;;;;;;;17.54;47.89;97621.20;261376;1096;26344;-72
2021/04/29 17:20:40;;;;;;;9.70;6.75;;;;;;;17.43;48.20;97625.66;261408;1101;22734;-72
2021/04/29 17:25:43;;;;;;;11.30;7.30;;;;;;;17.27;48.37;97625.80;261335;1093;24522;-71
2021/04/29 17:30:46;;;;;;;12.43;8.03;;;;;;;17.12;48.61;97621.27;261332;1093;26191;-70
2021/04/29 17:35:49;;;;;;;12.25;8.10;;;;;;;16.98;48.84;97627.20;261404;1101;22760;-71
2021/04/29 17:40:52;;;;;;;12.55;8.45;;;;;;;16.82;49.22;97630.76;261335;1094;27104;-71
2021/04/29 17:45:56;;;;;;;11.83;8.17;;;;;;;16.68;49.45;97619.68;261320;1095;26391;-71
2021/04/29 17:51:00;;;;;;;13.60;8.60;;;;;;;16.52;49.77;97628.64;261412;1101;24398;-71
2021/04/29 17:56:03;;;;;;;16.45;9.15;;;;;;;16.34;50.10;97632.88;261408;1093;25923;-70
2021/04/29 18:01:06;;;;;;;14.17;9.97;;;;;;;16.15;50.60;97645.23;261343;1101;22751;-71
2021/04/29 18:06:12;;;;;;;23.30;13.13;;;;;;;16.02;51.08;97647.27;261518;1101;24553;-71
2021/04/29 18:11:14;;;;;;;19.60;13.10;;;;;;;15.94;51.49;97645.55;261695;1093;25829;-71
2021/04/29 18:16:20;;;;;;;16.20;11.20;;;;;;;15.89;51.79;97643.09;261597;1093;25836;-71
2021/04/29 18:21:30;;;;;;;21.20;13.40;;;;;;;15.83;52.08;97645.29;261807;1094;24377;-72
2021/04/29 18:26:55;;;;;;;29.63;18.63;;;;;;;15.71;52.52;97642.66;261381;1101;23043;-72
2021/04/29 18:31:59;;;;;;;27.70;17.35;;;;;;;15.61;52.87;97649.36;261454;1093;25928;-72
2021/04/29 18:37:04;;;;;;;24.10;15.45;;;;;;;15.55;53.32;97645.38;261671;1101;22758;-71
2021/04/29 18:42:09;;;;;;;24.53;16.33;;;;;;;15.51;53.44;97664.16;261471;1093;22749;-72
2021/04/29 18:47:14;;;;;;;24.00;16.90;;;;;;;15.46;53.54;97664.44;261441;1093;25865;-71
2021/04/29 18:52:31;;;;;;;26.60;16.80;;;;;;;15.42;53.92;97670.86;261443;1093;25865;-71
2021/04/29 18:57:34;;;;;;;19.47;13.57;;;;;;;15.40;54.33;97669.31;261438;1101;22822;-71
2021/04/29 19:02:37;;;;;;;17.17;11.50;;;;;;;15.40;54.44;97687.41;261532;1093;26037;-71
2021/04/29 19:07:40;;;;;;;18.45;12.05;;;;;;;15.40;54.47;97685.51;261366;1101;24436;-71
2021/04/29 19:12:43;;;;;;;21.23;13.33;;;;;;;15.44;54.77;97696.38;261471;1093;25830;-71
2021/04/29 19:17:47;;;;;;;19.70;12.30;;;;;;;15.49;54.82;97688.03;261482;1093;22903;-71
2021/04/29 19:22:50;;;;;;;19.17;12.50;;;;;;;15.51;54.64;97680.36;261651;1095;22750;-71
2021/04/29 19:27:53;;;;;;;19.43;13.53;;;;;;;15.49;54.80;97692.66;261477;1096;25865;-71
2021/04/29 19:32:57;;;;;;;28.30;15.40;;;;;;;15.41;54.91;97694.38;261375;1101;24418;-72
2021/04/29 19:38:05;;;;;;;29.80;19.05;;;;;;;15.34;55.20;97692.27;261364;1093;25945;-71
2021/04/29 19:43:10;;;;;;;29.20;18.40;;;;;;;15.29;55.68;97699.84;261380;1101;24517;-71
2021/04/29 19:48:13;;;;;;;30.35;18.30;;;;;;;15.25;55.65;97705.16;261484;1093;22850;-71
2021/04/29 19:53:22;;;;;;;29.55;19.25;;;;;;;15.23;56.00;97708.20;261431;1101;24370;-71
2021/04/29 19:58:46;;;;;;;31.47;19.50;;;;;;;15.22;56.22;97705.82;261382;1096;22765;-71
2021/04/29 20:03:50;;;;;;;34.90;22.07;;;;;;;15.18;56.38;97713.03;261601;1094;22719;-71
2021/04/29 20:08:53;;;;;;;44.23;24.67;;;;;;;15.14;57.32;97710.26;261367;1093;27339;-72
2021/04/29 20:13:55;;;;;;;42.90;25.35;;;;;;;15.03;58.46;97703.80;261428;1093;23435;-72
2021/04/29 20:18:58;;;;;;;42.90;25.50;;;;;;;14.95;58.50;97712.81;261358;1093;24269;-71
2021/04/29 20:24:01;;;;;;;47.20;28.25;;;;;;;14.85;59.28;97701.38;261351;1093;25861;-70
2021/04/29 20:29:04;;;;;;;52.15;31.00;;;;;;;14.75;59.85;97704.56;261392;1101;24141;-69
2021/04/29 20:34:07;;;;;;;56.83;32.97;;;;;;;14.72;60.01;97707.95;261827;1093;25938;-70
2021/04/29 20:39:11;;;;;;;51.65;30.30;;;;;;;14.66;60.93;97711.98;261421;1101;24338;-71
2021/04/29 20:44:14;;;;;;;55.10;31.25;;;;;;;14.51;61.83;97721.56;261397;1093;25079;-72
2021/04/29 20:49:18;;;;;;;47.90;28.80;;;;;;;14.35;62.51;97724.95;261554;1101;24367;-72
2021/04/29 20:54:21;;;;;;;50.95;30.90;;;;;;;14.24;62.93;97723.81;261459;1101;24370;-72
2021/04/29 20:59:25;;;;;;;56.90;31.30;;;;;;;14.15;63.35;97723.94;261462;1101;24369;-73
2021/04/29 21:04:28;;;;;;;46.70;27.85;;;;;;;14.09;64.30;97721.80;261523;1101;24105;-72
2021/04/29 21:09:31;;;;;;;53.25;29.35;;;;;;;14.03;64.52;97730.13;261410;1101;23527;-72
2021/04/29 21:14:34;;;;;;;46.60;30.15;;;;;;;14.06;65.01;97733.25;261465;1096;22912;-74
2021/04/29 21:19:39;;;;;;;47.50;28.10;;;;;;;14.05;65.50;97743.25;261564;1093;22916;-72
2021/04/29 21:24:43;;;;;;;39.50;24.37;;;;;;;13.98;65.63;97761.88;261519;1096;25909;-71
2021/04/29 21:29:46;;;;;;;42.85;26.35;;;;;;;13.92;65.26;97763.19;261338;1101;22737;-72
2021/04/29 21:34:48;;;;;;;40.15;23.25;;;;;;;13.80;66.04;97767.44;261590;1101;24545;-71
2021/04/29 21:39:55;;;;;;;38.25;22.75;;;;;;;13.71;66.49;97776.73;261298;1101;24251;-71
2021/04/29 21:44:57;;;;;;;31.40;21.23;;;;;;;13.69;67.66;97769.77;261401;1101;24412;-72
2021/04/29 21:50:00;;;;;;;41.37;24.07;;;;;;;13.66;67.85;97780.43;261325;1093;26343;-72
2021/04/29 21:55:05;;;;;;;34.60;21.10;;;;;;;13.66;68.27;97777.73;261366;1093;27329;-72
2021/04/29 22:00:28;;;;;;;30.30;17.40;;;;;;;13.63;68.37;97776.49;261417;1101;23052;-72
2021/04/29 22:05:40;;;;;;;25.60;17.10;;;;;;;13.66;68.94;97786.59;261339;1096;24556;-71
2021/04/29 22:11:03;;;;;;;28.05;17.20;;;;;;;13.66;68.80;97783.12;261402;1097;24538;-72
2021/04/29 22:16:09;;;;;;;26.47;16.93;;;;;;;13.59;69.62;97780.19;261328;1093;25992;-72
2021/04/29 22:21:13;;;;;;;26.90;16.70;;;;;;;13.54;69.52;97756.17;261419;1093;22727;-71
2021/04/29 22:26:17;;;;;;;26.35;16.75;;;;;;;13.52;69.89;97756.51;261467;1093;28128;-73
2021/04/29 22:31:20;;;;;;;26.55;17.80;;;;;;;13.51;69.77;97752.23;261307;1096;24417;-71
2021/04/29 22:36:26;;;;;;;28.90;17.75;;;;;;;13.49;70.30;97743.73;261449;1093;25855;-72
2021/04/29 22:41:31;;;;;;;28.30;18.40;;;;;;;13.49;70.70;97730.28;261455;1093;25852;-72
2021/04/29 22:46:42;;;;;;;25.15;16.50;;;;;;;13.54;71.08;97729.27;261414;1093;24393;-72
2021/04/29 22:51:46;;;;;;;26.35;17.75;;;;;;;13.55;71.32;97745.08;261336;1093;26194;-72
2021/04/29 22:56:49;;;;;;;27.83;17.97;;;;;;;13.61;71.46;97753.72;261368;1093;25852;-72
2021/04/29 23:02:08;;;;;;;28.70;17.20;;;;;;;13.68;71.56;97748.58;261375;1101;22772;-71
2021/04/29 23:07:31;;;;;;;27.00;16.40;;;;;;;13.72;71.66;97744.09;261285;1095;24286;-71
2021/04/29 23:12:35;;;;;;;29.70;19.40;;;;;;;13.73;71.73;97750.28;261460;1093;22742;-72
2021/04/29 23:17:43;;;;;;;32.75;21.70;;;;;;;13.66;72.04;97770.44;261336;1093;25967;-72
2021/04/29 23:23:00;;;;;;;30.95;19.30;;;;;;;13.42;72.02;97787.30;261347;1101;22754;-71